Time;durP1;ratioP1;P1;durP2;ratioP2;P2;SDS_P1;SDS_P2;PMS_P1;PMS_P2;Temp;Humidity;BMP_temperature;BMP_pressure;BME280_temperature;BME280_humidity;BME280_pressure;Samples;Min_cycle;Max_cycle;Signal;HPM_P1;HPM_P2
2023/06/19 00:00:54;;;;;;;6.32;4.93;;;22.00;99.90;;;;;;5159110;27;20515;-68
2023/06/19 00:03:19;;;;;;;5.40;4.38;;;22.00;99.90;;;;;;5123806;27;20368;-67
2023/06/19 00:05:45;;;;;;;5.45;4.50;;;22.00;99.90;;;;;;5140674;27;20471;-68
2023/06/19 00:08:11;;;;;;;5.82;4.53;;;22.10;99.90;;;;;;5159333;27;20057;-67
2023/06/19 00:10:36;;;;;;;6.00;4.85;;;22.10;99.90;;;;;;5140335;27;20091;-67
2023/06/19 00:13:02;;;;;;;5.78;4.55;;;22.20;99.90;;;;;;5141228;27;20046;-67
2023/06/19 00:15:29;;;;;;;5.43;4.70;;;22.30;99.90;;;;;;5159358;27;20046;-67
2023/06/19 00:17:56;;;;;;;6.57;5.03;;;22.30;99.90;;;;;;5158968;27;20086;-67
2023/06/19 00:20:23;;;;;;;5.95;4.88;;;22.40;99.90;;;;;;5158556;27;20046;-67
2023/06/19 00:22:51;;;;;;;6.13;4.80;;;22.50;99.90;;;;;;5158544;27;20101;-68
2023/06/19 00:25:19;;;;;;;5.97;4.65;;;22.50;99.90;;;;;;5140293;27;20049;-67
2023/06/19 00:27:45;;;;;;;6.88;4.75;;;22.50;99.90;;;;;;5140270;27;20418;-67
2023/06/19 00:30:11;;;;;;;6.75;4.60;;;22.60;99.90;;;;;;5140094;27;20082;-66
2023/06/19 00:32:46;;;;;;;5.47;4.82;;;22.60;99.90;;;;;;5158996;27;20391;-67
2023/06/19 00:35:15;;;;;;;7.18;4.75;;;22.70;99.90;;;;;;5140930;27;20054;-68
2023/06/19 00:37:45;;;;;;;7.20;4.75;;;22.70;99.90;;;;;;5158332;27;20078;-67
2023/06/19 00:40:28;;;;;;;6.38;4.95;;;22.70;99.90;;;;;;5158790;27;20399;-67
2023/06/19 00:42:53;;;;;;;5.05;4.25;;;22.70;99.90;;;;;;5158791;27;20139;-68
2023/06/19 00:45:19;;;;;;;6.63;4.53;;;22.70;99.90;;;;;;5158973;27;20054;-67
2023/06/19 00:47:45;;;;;;;4.45;3.90;;;22.80;99.90;;;;;;5157633;27;20406;-67
2023/06/19 00:50:11;;;;;;;4.60;4.10;;;22.80;99.90;;;;;;5158025;27;20038;-68
2023/06/19 00:52:37;;;;;;;5.68;4.20;;;22.80;99.90;;;;;;5140627;27;20144;-67
2023/06/19 00:55:04;;;;;;;4.90;3.95;;;22.80;99.90;;;;;;5139388;27;20080;-68
2023/06/19 00:57:31;;;;;;;4.65;3.80;;;22.90;99.90;;;;;;5122136;27;20501;-67
2023/06/19 00:59:57;;;;;;;4.65;4.00;;;22.90;99.90;;;;;;5139867;27;20065;-67
2023/06/19 01:02:24;;;;;;;6.10;4.22;;;22.90;99.90;;;;;;5157759;27;20179;-67
2023/06/19 01:04:51;;;;;;;6.07;4.53;;;22.90;99.90;;;;;;5157774;27;20043;-67
2023/06/19 01:07:27;;;;;;;5.68;4.03;;;22.90;99.90;;;;;;5122217;27;20051;-67
2023/06/19 01:10:04;;;;;;;5.80;4.50;;;22.90;99.90;;;;;;5158648;27;20046;-67
2023/06/19 01:12:48;;;;;;;5.30;4.60;;;22.90;99.90;;;;;;5158192;27;20087;-67
2023/06/19 01:15:14;;;;;;;5.40;4.32;;;22.80;99.90;;;;;;5157688;27;20054;-67
2023/06/19 01:17:40;;;;;;;5.25;4.32;;;22.70;99.90;;;;;;5157479;27;20122;-68
2023/06/19 01:20:11;;;;;;;5.00;4.00;;;22.70;99.90;;;;;;5140025;27;20042;-68
2023/06/19 01:22:37;;;;;;;4.80;4.25;;;22.70;99.90;;;;;;5139512;27;20039;-68
2023/06/19 01:25:05;;;;;;;7.40;5.28;;;22.60;99.90;;;;;;5157388;27;20050;-67
2023/06/19 01:27:31;;;;;;;9.77;5.07;;;22.60;99.90;;;;;;5139367;27;20039;-68
2023/06/19 01:30:02;;;;;;;6.13;4.40;;;22.60;99.90;;;;;;5157186;27;20035;-67
2023/06/19 01:32:49;;;;;;;5.45;4.50;;;22.60;99.90;;;;;;5157196;27;20115;-68
2023/06/19 01:35:19;;;;;;;5.50;4.88;;;22.60;99.90;;;;;;5138882;27;20467;-67
2023/06/19 01:37:48;;;;;;;6.32;4.68;;;22.50;99.90;;;;;;5157145;27;20043;-67
2023/06/19 01:40:15;;;;;;;5.15;4.13;;;22.50;99.90;;;;;;5138626;27;20054;-68
2023/06/19 01:42:41;;;;;;;6.07;4.30;;;22.50;99.90;;;;;;5138782;27;20046;-68
2023/06/19 01:45:08;;;;;;;4.93;4.32;;;22.50;99.90;;;;;;5139546;27;20157;-67
2023/06/19 01:47:33;;;;;;;5.65;4.82;;;22.50;99.90;;;;;;5157464;27;20463;-68
2023/06/19 01:49:59;;;;;;;5.43;4.22;;;22.50;99.90;;;;;;5157679;27;20089;-67
2023/06/19 01:52:25;;;;;;;6.03;4.65;;;22.40;99.90;;;;;;5157323;27;20467;-68
2023/06/19 01:54:51;;;;;;;5.65;4.50;;;22.40;99.90;;;;;;5137935;27;20390;-68
2023/06/19 01:57:18;;;;;;;5.80;4.50;;;22.40;99.90;;;;;;5156947;27;20042;-66
2023/06/19 01:59:43;;;;;;;5.32;4.53;;;22.40;99.90;;;;;;5156568;27;20050;-68
2023/06/19 02:02:10;;;;;;;5.45;4.25;;;22.30;99.90;;;;;;5138202;27;20039;-67
2023/06/19 02:04:36;;;;;;;5.47;4.45;;;22.30;99.90;;;;;;5157419;27;20047;-67
2023/06/19 02:07:01;;;;;;;6.47;4.68;;;22.30;99.90;;;;;;5156234;27;20180;-68
2023/06/19 02:09:27;;;;;;;5.15;4.38;;;22.30;99.90;;;;;;5156291;27;20053;-67
2023/06/19 02:11:53;;;;;;;5.85;4.45;;;22.30;99.90;;;;;;5157238;27;20422;-68
2023/06/19 02:14:19;;;;;;;6.90;4.75;;;22.30;99.90;;;;;;5121890;27;20082;-68
2023/06/19 02:16:44;;;;;;;6.22;4.38;;;22.30;99.90;;;;;;5138473;27;20365;-68
2023/06/19 02:19:11;;;;;;;5.18;4.43;;;22.30;99.90;;;;;;5156323;27;20127;-68
2023/06/19 02:21:37;;;;;;;7.03;4.82;;;22.30;99.90;;;;;;5137541;27;20054;-67
2023/06/19 02:24:03;;;;;;;5.00;4.47;;;22.30;99.90;;;;;;5156992;27;20106;-68
2023/06/19 02:26:29;;;;;;;5.53;4.18;;;22.20;99.90;;;;;;5156116;27;20483;-68
2023/06/19 02:28:56;;;;;;;5.82;4.63;;;22.20;99.90;;;;;;5138120;27;20053;-68
2023/06/19 02:31:22;;;;;;;5.60;4.53;;;22.20;99.90;;;;;;5137684;27;20043;-68
2023/06/19 02:33:49;;;;;;;4.95;4.43;;;22.20;99.90;;;;;;5120866;27;20051;-68
2023/06/19 02:36:19;;;;;;;6.22;4.78;;;22.20;99.90;;;;;;5156062;27;20047;-68
2023/06/19 02:38:46;;;;;;;5.15;4.43;;;22.20;99.90;;;;;;5156270;27;20118;-67
2023/06/19 02:41:13;;;;;;;7.10;4.43;;;22.20;99.90;;;;;;5155848;27;20050;-67
2023/06/19 02:43:40;;;;;;;5.93;3.83;;;22.20;99.90;;;;;;5137373;27;20050;-66
2023/06/19 02:46:06;;;;;;;6.65;4.90;;;22.20;99.90;;;;;;5155719;27;20058;-67
2023/06/19 02:48:31;;;;;;;6.32;5.10;;;22.20;99.90;;;;;;5137464;27;20046;-67
2023/06/19 02:50:57;;;;;;;5.63;4.40;;;22.20;99.90;;;;;;5156555;27;20420;-67
2023/06/19 02:53:23;;;;;;;5.88;4.60;;;22.20;99.90;;;;;;5155635;27;20050;-68
2023/06/19 02:55:48;;;;;;;5.75;4.70;;;22.20;99.90;;;;;;5137413;27;20092;-68
2023/06/19 02:58:14;;;;;;;5.40;4.22;;;22.30;99.90;;;;;;5138243;27;20368;-68
2023/06/19 03:00:40;;;;;;;5.57;4.38;;;22.20;99.90;;;;;;5155079;27;20064;-68
2023/06/19 03:03:05;;;;;;;5.90;4.45;;;22.20;99.90;;;;;;5137324;27;20054;-67
2023/06/19 03:05:31;;;;;;;5.30;4.53;;;22.20;99.90;;;;;;5155493;27;20498;-67
2023/06/19 03:07:57;;;;;;;5.80;4.55;;;22.20;99.90;;;;;;5137191;27;20483;-67
2023/06/19 03:10:22;;;;;;;5.28;4.43;;;22.10;99.90;;;;;;5155435;27;20050;-67
2023/06/19 03:12:48;;;;;;;5.38;4.53;;;22.10;99.90;;;;;;5155696;27;20083;-66
2023/06/19 03:15:14;;;;;;;7.22;4.60;;;22.10;99.90;;;;;;5155783;27;20129;-67
2023/06/19 03:17:39;;;;;;;11.02;4.38;;;22.00;99.90;;;;;;5155415;27;20047;-67
2023/06/19 03:20:06;;;;;;;6.40;4.47;;;22.00;99.90;;;;;;5155396;27;20531;-67
2023/06/19 03:22:31;;;;;;;5.70;4.20;;;21.90;99.90;;;;;;5155312;27;20105;-66
2023/06/19 03:24:57;;;;;;;5.00;3.75;;;22.00;99.90;;;;;;5136605;27;20074;-67
2023/06/19 03:27:24;;;;;;;5.45;4.35;;;22.00;99.90;;;;;;5156003;27;20053;-66
2023/06/19 03:29:50;;;;;;;5.72;4.65;;;22.00;99.90;;;;;;5120595;27;20047;-66
2023/06/19 03:32:16;;;;;;;4.80;4.20;;;22.00;99.90;;;;;;5155172;27;20046;-66
2023/06/19 03:34:42;;;;;;;5.15;4.18;;;22.00;99.90;;;;;;5155262;27;20088;-67
2023/06/19 03:37:08;;;;;;;5.82;4.30;;;22.00;99.90;;;;;;5154830;27;20082;-66
2023/06/19 03:39:34;;;;;;;5.63;4.53;;;22.00;99.90;;;;;;5155168;27;20046;-65
2023/06/19 03:41:59;;;;;;;5.68;4.28;;;22.00;99.90;;;;;;5137394;27;20371;-66
2023/06/19 03:44:25;;;;;;;5.72;4.18;;;22.00;99.90;;;;;;5120584;27;20376;-67
2023/06/19 03:46:51;;;;;;;4.68;4.00;;;21.90;99.90;;;;;;5136466;27;20139;-66
2023/06/19 03:49:17;;;;;;;4.75;4.05;;;21.90;99.90;;;;;;5155083;27;20050;-66
2023/06/19 03:51:43;;;;;;;5.43;4.35;;;21.90;99.90;;;;;;5155017;27;20046;-65
2023/06/19 03:54:08;;;;;;;4.95;4.32;;;21.90;99.90;;;;;;5136860;27;20047;-65
2023/06/19 03:56:34;;;;;;;5.97;4.15;;;21.90;99.90;;;;;;5154976;27;20042;-67
2023/06/19 03:59:00;;;;;;;6.25;4.25;;;21.90;99.90;;;;;;5137552;27;20049;-66
2023/06/19 04:01:25;;;;;;;5.57;4.40;;;21.90;99.90;;;;;;5155055;27;20039;-66
2023/06/19 04:03:51;;;;;;;5.15;4.18;;;21.80;99.90;;;;;;5155010;27;20476;-65
2023/06/19 04:06:17;;;;;;;5.53;4.20;;;21.80;99.90;;;;;;5154886;27;20051;-65
2023/06/19 04:08:43;;;;;;;4.70;3.72;;;21.80;99.90;;;;;;5154863;27;20035;-66
2023/06/19 04:11:09;;;;;;;4.90;3.92;;;21.70;99.90;;;;;;5155712;27;20034;-65
2023/06/19 04:13:34;;;;;;;4.78;4.20;;;21.60;99.90;;;;;;5155142;27;20043;-66
2023/06/19 04:16:00;;;;;;;4.55;3.78;;;21.60;99.90;;;;;;5154856;27;20547;-66
2023/06/19 04:18:27;;;;;;;4.82;3.70;;;21.60;99.90;;;;;;5154846;27;20521;-65
2023/06/19 04:20:53;;;;;;;4.95;3.83;;;21.60;99.90;;;;;;5155252;27;20091;-66
2023/06/19 04:23:19;;;;;;;5.95;4.07;;;21.60;99.90;;;;;;5119527;27;20488;-66
2023/06/19 04:25:44;;;;;;;4.70;3.58;;;21.50;99.90;;;;;;5154889;27;20047;-67
2023/06/19 04:28:10;;;;;;;5.35;4.10;;;21.50;99.90;;;;;;5154650;27;20497;-66
2023/06/19 04:30:39;;;;;;;4.28;3.40;;;21.40;99.90;;;;;;5154589;27;20599;-67
2023/06/19 04:33:06;;;;;;;4.78;3.33;;;21.40;99.90;;;;;;5158633;27;20054;-66
2023/06/19 04:35:32;;;;;;;5.32;3.70;;;21.40;99.90;;;;;;5140125;27;20051;-67
2023/06/19 04:38:00;;;;;;;4.40;3.50;;;21.40;99.90;;;;;;5158308;27;20048;-66
2023/06/19 04:40:27;;;;;;;5.95;3.50;;;21.40;99.90;;;;;;5158230;27;20107;-67
2023/06/19 04:42:53;;;;;;;4.35;3.40;;;21.40;99.90;;;;;;5158186;27;20082;-66
2023/06/19 04:45:20;;;;;;;4.43;3.22;;;21.30;99.90;;;;;;5158210;27;20047;-67
2023/06/19 04:47:45;;;;;;;5.00;3.30;;;21.30;99.90;;;;;;5158781;27;20050;-66
2023/06/19 04:50:11;;;;;;;5.72;3.65;;;21.40;99.90;;;;;;5140579;27;20477;-66
2023/06/19 04:52:37;;;;;;;5.10;3.70;;;21.30;99.90;;;;;;5139714;27;20125;-67
2023/06/19 04:55:09;;;;;;;4.80;3.33;;;21.30;99.90;;;;;;5139502;27;20046;-67
2023/06/19 04:57:36;;;;;;;4.88;3.58;;;21.30;99.90;;;;;;5139705;27;20542;-66
2023/06/19 05:00:05;;;;;;;4.72;3.63;;;21.40;99.90;;;;;;5157847;27;20053;-67
2023/06/19 05:02:31;;;;;;;5.18;3.40;;;21.40;99.90;;;;;;5157801;27;20035;-66
2023/06/19 05:04:56;;;;;;;4.45;3.50;;;21.40;99.90;;;;;;5122739;27;20043;-67
2023/06/19 05:07:22;;;;;;;5.30;3.17;;;21.40;99.90;;;;;;5157725;27;20057;-66
2023/06/19 05:09:48;;;;;;;4.30;2.92;;;21.40;99.90;;;;;;5139435;27;20045;-67
2023/06/19 05:12:14;;;;;;;4.07;3.30;;;21.30;99.90;;;;;;5139269;27;20605;-67
2023/06/19 05:14:39;;;;;;;4.43;3.25;;;21.30;99.90;;;;;;5139026;27;20039;-66
2023/06/19 05:17:06;;;;;;;5.35;3.50;;;21.40;99.90;;;;;;5157592;27;20134;-67
2023/06/19 05:19:31;;;;;;;4.20;3.00;;;21.40;99.90;;;;;;5139105;27;20070;-60
2023/06/19 05:21:57;;;;;;;5.00;2.78;;;21.50;99.90;;;;;;5157663;27;20455;-60
2023/06/19 05:24:23;;;;;;;5.18;3.13;;;21.40;99.90;;;;;;5157418;27;20403;-61
2023/06/19 05:26:48;;;;;;;3.85;2.78;;;21.40;99.90;;;;;;5157325;27;20395;-60
2023/06/19 05:29:14;;;;;;;4.10;2.60;;;21.20;99.90;;;;;;5157272;27;20086;-60
2023/06/19 05:31:40;;;;;;;4.70;3.00;;;21.10;99.90;;;;;;5157168;27;20043;-60
2023/06/19 05:34:06;;;;;;;3.35;2.53;;;21.10;99.90;;;;;;5157539;27;20131;-61
2023/06/19 05:36:32;;;;;;;3.55;2.72;;;20.90;99.90;;;;;;5121862;27;20090;-60
2023/06/19 05:38:57;;;;;;;3.38;2.78;;;20.90;99.90;;;;;;5138610;27;20429;-60
2023/06/19 05:41:23;;;;;;;3.95;3.13;;;20.80;99.90;;;;;;5156980;27;20031;-61
2023/06/19 05:43:49;;;;;;;4.25;2.70;;;20.80;99.90;;;;;;5156383;27;20046;-61
2023/06/19 05:46:14;;;;;;;5.43;3.25;;;20.70;99.90;;;;;;5156704;27;20054;-60
2023/06/19 05:48:40;;;;;;;4.20;2.58;;;20.70;99.90;;;;;;5156907;27;20054;-61
2023/06/19 05:51:06;;;;;;;4.28;2.70;;;20.70;99.90;;;;;;5156766;27;20043;-61
2023/06/19 05:53:32;;;;;;;4.07;3.00;;;20.70;99.90;;;;;;5157308;27;20045;-61
2023/06/19 05:55:59;;;;;;;3.55;2.60;;;20.80;99.90;;;;;;5156686;27;20046;-61
2023/06/19 05:58:25;;;;;;;4.57;3.08;;;20.80;99.90;;;;;;5156393;27;20491;-61
2023/06/19 06:00:57;;;;;;;3.90;2.80;;;20.90;99.90;;;;;;5157176;27;20050;-61
2023/06/19 06:03:24;;;;;;;3.92;3.17;;;21.00;99.90;;;;;;5156925;27;20047;-61
2023/06/19 06:05:51;;;;;;;3.58;2.80;;;21.10;99.90;;;;;;5156620;27;20043;-60
2023/06/19 06:08:16;;;;;;;4.53;3.03;;;21.20;99.90;;;;;;5157132;27;20042;-61
2023/06/19 06:10:42;;;;;;;3.58;2.40;;;21.30;99.90;;;;;;5156568;27;20049;-60
2023/06/19 06:13:08;;;;;;;3.83;2.80;;;21.40;99.90;;;;;;5156414;27;20046;-61
2023/06/19 06:15:34;;;;;;;5.15;2.90;;;21.40;99.90;;;;;;5156967;27;20406;-61
2023/06/19 06:18:00;;;;;;;4.20;2.70;;;21.50;99.90;;;;;;5156375;27;20045;-60
2023/06/19 06:20:26;;;;;;;3.65;2.60;;;21.50;99.90;;;;;;5155662;27;20093;-61
2023/06/19 06:22:52;;;;;;;5.18;2.90;;;21.50;99.90;;;;;;5137763;27;20086;-60
2023/06/19 06:25:18;;;;;;;3.65;3.00;;;21.60;99.90;;;;;;5156096;27;20069;-61
2023/06/19 06:27:44;;;;;;;3.22;2.25;;;21.70;99.90;;;;;;5156035;27;20471;-60
2023/06/19 06:30:11;;;;;;;3.53;2.70;;;21.70;99.90;;;;;;5138494;27;20114;-61
2023/06/19 06:32:37;;;;;;;3.47;2.60;;;21.80;99.90;;;;;;5155986;27;20082;-61
2023/06/19 06:35:04;;;;;;;3.90;3.00;;;21.80;99.90;;;;;;5155894;27;20157;-62
2023/06/19 06:37:29;;;;;;;3.70;2.80;;;21.80;99.90;;;;;;5155935;27;20049;-61
2023/06/19 06:39:55;;;;;;;3.75;2.90;;;21.80;99.90;;;;;;5155575;27;20054;-61
2023/06/19 06:42:21;;;;;;;3.60;2.47;;;21.80;99.90;;;;;;5155671;27;20099;-61
2023/06/19 06:44:47;;;;;;;4.53;3.10;;;21.90;99.90;;;;;;5155805;27;20242;-61
2023/06/19 06:47:13;;;;;;;4.78;2.70;;;21.90;99.90;;;;;;5156186;27;20058;-61
2023/06/19 06:49:38;;;;;;;3.95;3.15;;;21.90;99.90;;;;;;5155644;27;20089;-61
2023/06/19 06:52:04;;;;;;;4.70;3.17;;;21.90;99.90;;;;;;5155906;27;20042;-61
2023/06/19 06:54:30;;;;;;;3.90;3.00;;;21.90;99.90;;;;;;5155233;27;20046;-61
2023/06/19 06:56:58;;;;;;;4.85;3.40;;;21.90;99.90;;;;;;5155560;27;20053;-62
2023/06/19 06:59:25;;;;;;;4.93;2.75;;;22.00;99.90;;;;;;5155557;27;20043;-61
2023/06/19 07:01:50;;;;;;;4.28;2.97;;;22.00;99.90;;;;;;5155342;27;20050;-62
2023/06/19 07:04:16;;;;;;;5.93;3.38;;;22.10;99.90;;;;;;5155324;27;20099;-61
2023/06/19 07:06:42;;;;;;;4.18;3.17;;;22.20;99.90;;;;;;5155502;27;20050;-62
2023/06/19 07:09:08;;;;;;;4.50;3.78;;;22.10;99.90;;;;;;5155524;27;20039;-61
2023/06/19 07:11:34;;;;;;;5.47;3.72;;;22.00;99.90;;;;;;5155331;27;20099;-61
2023/06/19 07:14:00;;;;;;;5.47;3.92;;;21.90;99.90;;;;;;5155197;27;20046;-61
2023/06/19 07:16:25;;;;;;;4.55;3.78;;;21.70;99.90;;;;;;5155280;27;20043;-61
2023/06/19 07:18:51;;;;;;;5.43;4.05;;;21.70;99.90;;;;;;5155310;27;20045;-61
2023/06/19 07:21:17;;;;;;;4.38;3.38;;;21.70;99.90;;;;;;5136884;27;20053;-62
2023/06/19 07:23:45;;;;;;;4.50;3.83;;;21.70;99.90;;;;;;5155818;27;20130;-61
2023/06/19 07:26:12;;;;;;;4.10;3.22;;;21.60;99.90;;;;;;5155247;27;20043;-61
2023/06/19 07:28:38;;;;;;;5.57;3.70;;;21.60;99.90;;;;;;5155202;27;20054;-61
2023/06/19 07:31:04;;;;;;;4.30;3.28;;;21.60;99.90;;;;;;5136616;27;20047;-61
2023/06/19 07:33:29;;;;;;;5.15;3.35;;;21.60;99.90;;;;;;5155048;27;20129;-62
2023/06/19 07:35:56;;;;;;;5.05;3.60;;;21.60;99.90;;;;;;5155039;27;20362;-61
2023/06/19 07:38:22;;;;;;;4.47;3.35;;;21.50;99.90;;;;;;5155746;27;20099;-61
2023/06/19 07:40:48;;;;;;;5.47;3.60;;;21.50;99.90;;;;;;5119890;27;20050;-61
2023/06/19 07:43:13;;;;;;;5.10;3.75;;;21.40;99.90;;;;;;5136689;27;20558;-61
2023/06/19 07:45:39;;;;;;;3.83;3.28;;;21.40;99.90;;;;;;5154569;27;20042;-61
2023/06/19 07:48:05;;;;;;;4.18;3.50;;;21.50;99.90;;;;;;5155042;27;20082;-61
2023/06/19 07:50:31;;;;;;;4.88;3.80;;;21.60;99.90;;;;;;5155034;27;20042;-62
2023/06/19 07:52:57;;;;;;;3.97;3.30;;;21.70;99.90;;;;;;5155305;27;20438;-61
2023/06/19 07:55:23;;;;;;;3.70;3.20;;;21.80;99.90;;;;;;5155032;27;20402;-62
2023/06/19 07:57:49;;;;;;;3.60;2.95;;;21.90;99.90;;;;;;5155019;27;20042;-61
2023/06/19 08:00:15;;;;;;;4.43;3.30;;;22.00;99.90;;;;;;5154899;27;20050;-61
2023/06/19 08:02:42;;;;;;;4.15;3.20;;;22.00;99.90;;;;;;5154808;27;20034;-63
2023/06/19 08:05:09;;;;;;;4.28;3.67;;;22.00;99.90;;;;;;5154904;27;20146;-61
2023/06/19 08:07:35;;;;;;;4.70;4.10;;;22.00;99.90;;;;;;5157676;27;20545;-62
2023/06/19 08:10:01;;;;;;;5.15;4.20;;;21.90;99.90;;;;;;5158886;27;20130;-61
2023/06/19 08:12:27;;;;;;;5.07;3.70;;;21.80;99.90;;;;;;5159618;27;20042;-61
2023/06/19 08:14:52;;;;;;;4.10;3.70;;;21.70;99.90;;;;;;5158720;27;20039;-62
2023/06/19 08:17:18;;;;;;;4.22;3.60;;;21.60;99.90;;;;;;5158355;27;20050;-61
2023/06/19 08:19:44;;;;;;;4.63;3.30;;;21.60;99.90;;;;;;5140041;27;20053;-61
2023/06/19 08:22:09;;;;;;;4.50;3.42;;;21.60;99.90;;;;;;5158339;27;20035;-61
2023/06/19 08:24:36;;;;;;;4.88;3.75;;;21.70;99.90;;;;;;5158439;27;20050;-61
2023/06/19 08:27:02;;;;;;;4.00;3.30;;;21.70;99.90;;;;;;5158330;27;20045;-61
2023/06/19 08:29:28;;;;;;;5.53;3.67;;;21.70;99.90;;;;;;5159215;27;20130;-61
2023/06/19 08:31:54;;;;;;;4.43;3.70;;;21.60;99.90;;;;;;5157944;27;20482;-61
2023/06/19 08:34:19;;;;;;;5.50;4.60;;;21.70;99.90;;;;;;5140912;27;20035;-62
2023/06/19 08:36:45;;;;;;;5.32;4.40;;;21.70;99.90;;;;;;5139906;27;20463;-61
2023/06/19 08:39:11;;;;;;;5.00;4.45;;;21.80;99.90;;;;;;5140401;27;20035;-62
2023/06/19 08:41:38;;;;;;;6.53;4.35;;;21.70;99.90;;;;;;5158108;27;20046;-61
2023/06/19 08:44:05;;;;;;;4.97;4.30;;;21.80;99.90;;;;;;5157964;27;20099;-62
2023/06/19 08:46:31;;;;;;;4.97;4.45;;;21.80;99.90;;;;;;5158142;27;20428;-62
2023/06/19 08:48:57;;;;;;;5.13;4.63;;;21.70;99.90;;;;;;5157995;27;20054;-61
2023/06/19 08:51:23;;;;;;;5.47;4.30;;;21.70;99.90;;;;;;5139597;27;20083;-62
2023/06/19 08:53:54;;;;;;;6.43;5.30;;;21.70;99.90;;;;;;5158003;27;20546;-62
2023/06/19 08:56:20;;;;;;;5.60;4.28;;;21.80;99.90;;;;;;5157959;27;20448;-61
2023/06/19 08:58:46;;;;;;;5.82;5.22;;;21.90;99.90;;;;;;5157931;27;20046;-62
2023/06/19 09:01:17;;;;;;;4.95;4.32;;;21.90;99.90;;;;;;5157577;27;20042;-61
2023/06/19 09:03:44;;;;;;;4.85;4.15;;;21.90;99.90;;;;;;5157867;27;20049;-61
2023/06/19 09:06:09;;;;;;;5.32;4.18;;;21.90;99.90;;;;;;5158199;27;20050;-61
2023/06/19 09:08:35;;;;;;;5.78;4.22;;;22.00;99.90;;;;;;5157467;27;20046;-63
2023/06/19 09:11:03;;;;;;;4.20;3.63;;;22.00;99.90;;;;;;5139814;27;20046;-61
2023/06/19 09:13:29;;;;;;;4.55;3.67;;;21.90;99.90;;;;;;5157607;27;20046;-62
2023/06/19 09:16:01;;;;;;;4.75;4.00;;;21.70;99.90;;;;;;5157318;27;20118;-62
2023/06/19 09:18:28;;;;;;;4.50;3.83;;;21.60;99.90;;;;;;5156903;27;20445;-61
2023/06/19 09:20:54;;;;;;;4.35;3.58;;;21.60;99.90;;;;;;5157371;27;20034;-61
2023/06/19 09:23:20;;;;;;;4.63;3.50;;;21.60;99.90;;;;;;5157370;27;20047;-61
2023/06/19 09:25:47;;;;;;;5.18;3.83;;;21.70;99.90;;;;;;5139648;27;20189;-62
2023/06/19 09:28:21;;;;;;;6.45;5.38;;;21.70;99.90;;;;;;5157123;27;20053;-61
2023/06/19 09:31:01;;;;;;;5.97;5.20;;;21.90;99.90;;;;;;5138777;27;20451;-61
2023/06/19 09:33:30;;;;;;;5.88;5.28;;;22.00;99.90;;;;;;5157222;27;20187;-61
2023/06/19 09:35:57;;;;;;;6.40;5.57;;;22.20;99.90;;;;;;5138636;27;20091;-62
2023/06/19 09:38:29;;;;;;;5.60;4.97;;;22.50;99.90;;;;;;5138846;27;20435;-63
2023/06/19 09:40:56;;;;;;;5.00;4.28;;;22.80;99.90;;;;;;5157563;27;20043;-62
2023/06/19 09:43:32;;;;;;;5.40;4.90;;;22.80;99.90;;;;;;5157145;27;20042;-62
2023/06/19 09:45:58;;;;;;;6.15;5.25;;;22.90;99.90;;;;;;5156392;27;20536;-63
2023/06/19 09:48:30;;;;;;;5.82;5.20;;;22.90;99.90;;;;;;5157160;27;20039;-61
2023/06/19 09:51:16;;;;;;;6.20;5.57;;;22.90;99.90;;;;;;5156760;27;20050;-62
2023/06/19 09:53:45;;;;;;;6.07;4.70;;;22.90;99.90;;;;;;5156814;27;20114;-62
2023/06/19 09:56:13;;;;;;;6.13;4.43;;;23.40;99.90;;;;;;5156683;27;20039;-62
2023/06/19 09:58:40;;;;;;;4.63;4.20;;;23.90;99.90;;;;;;5157218;27;20047;-62
2023/06/19 10:01:07;;;;;;;5.75;4.65;;;24.30;99.90;;;;;;5156484;27;20039;-63
2023/06/19 10:03:34;;;;;;;4.68;4.00;;;24.60;99.90;;;;;;5157226;27;20054;-62
2023/06/19 10:06:04;;;;;;;5.25;4.75;;;24.70;99.90;;;;;;5156526;27;20483;-62
2023/06/19 10:08:31;;;;;;;5.53;5.03;;;24.70;99.90;;;;;;5157064;27;20054;-63
2023/06/19 10:10:59;;;;;;;5.90;5.30;;;24.80;99.90;;;;;;5156946;27;20042;-61
2023/06/19 10:13:33;;;;;;;6.57;5.55;;;24.80;99.90;;;;;;5156278;27;20049;-61
2023/06/19 10:15:59;;;;;;;5.80;5.20;;;24.90;99.90;;;;;;5138048;27;20440;-62
2023/06/19 10:18:26;;;;;;;4.82;4.35;;;24.80;99.90;;;;;;5156575;27;20111;-61
2023/06/19 10:20:54;;;;;;;5.63;4.63;;;24.80;99.90;;;;;;5156181;27;20050;-62
2023/06/19 10:23:22;;;;;;;4.93;4.43;;;24.70;99.90;;;;;;5137878;27;20505;-61
2023/06/19 10:25:59;;;;;;;5.55;4.50;;;24.50;99.90;;;;;;5156135;27;20090;-61
2023/06/19 10:28:30;;;;;;;5.38;4.35;;;24.30;99.90;;;;;;5156351;27;20049;-61
2023/06/19 10:31:01;;;;;;;5.03;4.53;;;24.10;99.90;;;;;;5156112;27;20046;-61
2023/06/19 10:33:28;;;;;;;6.15;4.40;;;24.00;99.90;;;;;;5156036;27;20038;-61
2023/06/19 10:35:54;;;;;;;4.63;4.20;;;23.90;99.90;;;;;;5155928;27;20398;-61
2023/06/19 10:38:20;;;;;;;6.10;4.30;;;23.60;99.90;;;;;;5156439;27;20043;-60
2023/06/19 10:40:46;;;;;;;5.38;4.40;;;23.60;99.90;;;;;;5155785;27;20038;-61
2023/06/19 10:43:24;;;;;;;5.97;3.75;;;23.70;99.90;;;;;;5137434;27;20106;-60
2023/06/19 10:45:51;;;;;;;5.00;3.47;;;24.00;99.90;;;;;;5155703;27;20138;-60
2023/06/19 10:48:24;;;;;;;4.20;3.30;;;24.10;99.90;;;;;;5155719;27;20053;-60
2023/06/19 10:50:51;;;;;;;5.13;3.80;;;24.10;99.90;;;;;;5155738;27;20051;-61
2023/06/19 10:53:27;;;;;;;4.85;4.20;;;24.10;99.90;;;;;;5155676;27;20050;-60
2023/06/19 10:56:01;;;;;;;7.03;5.10;;;24.40;99.90;;;;;;5155674;27;20509;-62
2023/06/19 10:58:28;;;;;;;5.30;4.30;;;24.50;99.90;;;;;;5156484;27;20106;-61
2023/06/19 11:00:54;;;;;;;6.22;4.22;;;24.60;99.90;;;;;;5155283;27;20045;-61
2023/06/19 11:03:21;;;;;;;5.22;4.28;;;24.60;99.90;;;;;;5155491;27;20039;-61
2023/06/19 11:05:47;;;;;;;5.88;3.83;;;24.80;99.90;;;;;;5155543;27;20053;-60
2023/06/19 11:08:22;;;;;;;8.00;4.55;;;24.80;99.90;;;;;;5155887;27;20050;-60
2023/06/19 11:10:49;;;;;;;4.63;3.77;;;24.90;99.90;;;;;;5156202;27;20066;-61
2023/06/19 11:13:19;;;;;;;4.97;3.80;;;25.00;99.90;;;;;;5155443;27;20091;-61
2023/06/19 11:15:47;;;;;;;5.05;3.55;;;24.80;99.90;;;;;;5136860;27;20042;-61
2023/06/19 11:18:15;;;;;;;5.03;3.33;;;24.70;99.90;;;;;;5155286;27;20057;-62
2023/06/19 11:20:50;;;;;;;4.88;3.63;;;24.90;99.90;;;;;;5155529;27;20117;-61
2023/06/19 11:23:29;;;;;;;3.80;3.03;;;25.20;99.90;;;;;;5155369;27;20047;-62
2023/06/19 11:26:03;;;;;;;4.97;3.80;;;25.10;99.90;;;;;;5156030;27;20336;-62
2023/06/19 11:28:29;;;;;;;4.25;3.40;;;25.20;99.90;;;;;;5137268;27;20046;-63
2023/06/19 11:31:01;;;;;;;4.68;3.55;;;25.20;99.90;;;;;;5155111;27;20532;-61
2023/06/19 11:33:26;;;;;;;3.78;3.10;;;25.00;99.90;;;;;;5155216;27;20126;-62
2023/06/19 11:35:53;;;;;;;4.25;3.33;;;25.00;99.90;;;;;;5155144;27;20098;-61
2023/06/19 11:38:24;;;;;;;5.03;3.85;;;25.00;99.90;;;;;;5155074;27;20615;-62
2023/06/19 11:40:50;;;;;;;4.05;3.40;;;25.00;99.90;;;;;;5157049;27;20046;-61
2023/06/19 11:43:27;;;;;;;4.30;3.30;;;25.10;99.90;;;;;;5160351;27;20392;-61
2023/06/19 11:45:53;;;;;;;5.75;4.28;;;25.10;99.90;;;;;;5158916;27;20046;-62
2023/06/19 11:48:26;;;;;;;5.30;4.10;;;25.00;99.90;;;;;;5160019;27;20050;-62
2023/06/19 11:50:52;;;;;;;5.68;4.13;;;25.10;99.90;;;;;;5159154;27;20509;-61
2023/06/19 11:53:20;;;;;;;4.25;3.40;;;25.20;99.90;;;;;;5159135;27;20129;-60
2023/06/19 11:55:46;;;;;;;5.60;3.85;;;25.20;99.90;;;;;;5159482;27;20130;-60
2023/06/19 11:58:11;;;;;;;5.07;3.90;;;25.00;99.90;;;;;;5159155;27;20488;-60
2023/06/19 12:00:37;;;;;;;5.15;3.60;;;24.80;99.90;;;;;;5141477;27;20129;-60
2023/06/19 12:03:04;;;;;;;4.80;3.60;;;24.50;99.90;;;;;;5159018;27;20126;-60
2023/06/19 12:05:29;;;;;;;5.93;3.58;;;24.60;99.90;;;;;;5159029;27;20039;-60
2023/06/19 12:07:56;;;;;;;4.20;3.13;;;24.80;99.90;;;;;;5159099;27;20051;-60
2023/06/19 12:10:21;;;;;;;5.05;4.18;;;25.10;99.90;;;;;;5158905;27;20129;-60
2023/06/19 12:12:47;;;;;;;5.47;3.83;;;25.40;99.90;;;;;;5158750;27;20078;-60
2023/06/19 12:15:13;;;;;;;5.20;3.88;;;25.30;99.90;;;;;;5158838;27;20087;-61
2023/06/19 12:17:38;;;;;;;5.18;3.65;;;25.20;99.90;;;;;;5159399;27;20089;-60
2023/06/19 12:20:05;;;;;;;4.63;3.78;;;25.20;99.90;;;;;;5158982;27;20126;-60
2023/06/19 12:22:33;;;;;;;5.60;3.92;;;25.10;99.90;;;;;;5158537;27;20042;-60
2023/06/19 12:24:59;;;;;;;5.53;3.38;;;25.20;99.90;;;;;;5158635;27;20126;-61
2023/06/19 12:27:25;;;;;;;5.43;3.63;;;25.30;99.90;;;;;;5158471;27;20183;-60
2023/06/19 12:29:50;;;;;;;6.00;3.60;;;25.40;99.90;;;;;;5139988;27;20468;-60
2023/06/19 12:32:16;;;;;;;5.70;3.72;;;25.30;99.90;;;;;;5158038;27;20046;-62
2023/06/19 12:34:46;;;;;;;4.75;4.15;;;25.20;99.90;;;;;;5139961;27;20042;-62
2023/06/19 12:37:14;;;;;;;5.53;4.13;;;25.20;99.90;;;;;;5158309;27;20394;-61
2023/06/19 12:39:41;;;;;;;7.10;4.43;;;25.20;99.90;;;;;;5158765;27;20051;-61
2023/06/19 12:44:45;;;;;;;5.22;3.88;;;25.20;99.90;;;;;;730559;22;20315;-62
2023/06/19 12:47:11;;;;;;;5.50;4.10;;;25.40;99.90;;;;;;5071021;28;20076;-60
2023/06/19 12:49:37;;;;;;;4.93;4.05;;;25.40;99.90;;;;;;5058252;28;20094;-61